Terminal Aerodrome Forecast
Issued by NWS

Home | Current Version | Previous Version | Text Only | Print | Product List | Glossary On
Versions: 1 2 3 4 5 6 7 8 9 10 11 12 13
000
FTAK31 PAFA 222336
TAFABT
TAF
PABT 222336Z 2300/2324 33006KT 2SM -SN BR SCT015 BKN025 OVC035
     FM230600 VRB04KT 6SM -SN BR SCT015 BKN025 OVC050
     FM230900 VRB04KT P6SM VCSH SCT025 BKN035 OVC050
     FM231200 VRB04KT P6SM SCT035 BKN050 BKN100
     FM231500 VRB04KT P6SM SCT050 SCT100 BKN200=

USA.gov is the U.S. government's official web portal to all federal, state and local government web resources and services.